Terminal Aerodrome Forecast
Issued by NWS

Home | Current Version | Previous Version | Text Only | Print | Product List | Glossary On
Versions: 1 2 3 4 5 6 7 8 9 10 11 12 13 14
041
FTUS46 KMFR 171725
TAFLMT
TAF
KLMT 171725Z 1718/1818 VRB03KT P6SM SCT050
     FM172000 17012G20KT P6SM SCT080 OVC150
     FM180000 18014G25KT P6SM OVC080
     FM180400 17018G30KT P6SM OVC060
     FM181300 23011KT P6SM -RA OVC040=

USA.gov is the U.S. government's official web portal to all federal, state and local government web resources and services.